Pagina principale
METAR-TAF:

METAR-TAF

Aeroporti :

Sion, Svizzera

latitudine: 46-13N, longitudine: 007-20E, altezza: 482 m

Osservazione

Il bollettino è stato emesso 24 minuti fa, alle 22:20 UTC
Vento 1 kt da direzioni variabili
Temperature 17°C
Umidità 48%
Pressione 1017 hPa
Visibilità 10 km o più

METAR: LSGS 292220Z AUTO VRB01KT 9999 NCD 17/06 Q1017

Ora: 00:44 (22:44 UTC)

Previsione

Il bollettino è stato emesso 8 ore e 19 minuti fa, alle 14:25 UTC
Previsione valida dal 29 alle 15 UTC al 29 alle 24 UTC
Vento 12 kt da ovest/sud-ovest
Visibilità 10 km o più
Poco nuvoloso ad un'altezza di 10000 ft
Evoluzione graduale
dal 29 alle 17 UTC al 29 alle 20 UTC
Vento 3 kt da direzioni variabili
Visibilità 10 km o più
nessuna nube inferiore a 1500 m e nessun cumulonembo

TAF: LSGS 291425Z 2915/2924 25012KT 9999 FEW100 BECMG 2917/2920 VRB03KT CAVOK

Osservazioni e previsioni meteorologiche di più di 4000 aeroporti (messaggi METAR e TAF).

Le stazioni disponibili sono rappresentate dai dischi gialli e rossi sulla carta.

Puntare il mouse per vedere il nome della stazione.

Clicca sopra per visualizzare le osservazioni e previsioni meteorologiche.

Per cambiare la mappa : fare clic sui pulsanti verdi con una croce nera per ingrandire, il pulsante verde con un trattino per diminuire, o sulla freccia verde per le mappe adiacenti.


METAR-TAF: